»·PEaware :: N313N KSAN-KSNA

N313N :: KSAN-KSNA

FLIGHT INFORMATION

Flight Status: Arrived
Operator: Privately registered:
United States
More flights under this callsign
Pilot: Damien O. (2415)
Aircraft: GULFSTREAM G-1159C GULFSTREAM 4
(GLF4)
More flights by this aircraft type
Origin: KSAN San Diego Intl-Lindbergh
United States
Destination: KSNA John Wayne-Orange Co
United States
More flights between these airports :: More routes between these airports
Route: +LAXX5 SLI
File this flight plan on PilotEdge
Remarks:
Altitude:
(Current/Filed)
10,000ft
Speed:
(Current/Filed)
250kts
Departed: 22-Aug-19 05:51 AM
Arrived: 22-Aug-19 07:04 AM
Distance/Time
Traveled:
66nm/1:13
Distance/Time
To Go:
Arrived

Flight Plot

Page will automatically refresh every two minutes.

Flight plan parsing failed; only flown route is shown


Map Options




Map Legend


Flown Route
Filed Route
Departure Airport
Arrival Airport
Navaid (VOR, NDB)
Fix

Horizontal Profiles

Position Reports

Time Latitude Longitude Heading Altitude Ground
Speed
22-Aug-19 05:40 32.734272 -117.185249 195 25ft 0kts
22-Aug-19 05:41 32.734272 -117.185249 195 25ft 0kts
22-Aug-19 05:42 32.734272 -117.185249 195 25ft 0kts
22-Aug-19 05:43 32.734272 -117.185249 195 25ft 0kts
22-Aug-19 05:44 32.734272 -117.185249 195 25ft 0kts
22-Aug-19 05:45 32.732776 -117.181761 104 25ft 22kts
22-Aug-19 05:46 32.731433 -117.176440 111 25ft 8kts
22-Aug-19 05:47 32.731365 -117.176239 112 25ft 5kts
22-Aug-19 05:48 32.731168 -117.175721 119 25ft 0kts
22-Aug-19 05:49 32.730257 -117.175869 287 25ft 0kts
22-Aug-19 05:50 32.745570 -117.238955 286 896ft 429kts
22-Aug-19 05:51 32.786280 -117.309769 324 2556ft 234kts
22-Aug-19 05:52 32.832512 -117.371293 307 4379ft 271kts
22-Aug-19 05:53 32.879539 -117.440595 307 6740ft 278kts
22-Aug-19 05:54 32.928185 -117.512152 306 9121ft 286kts
22-Aug-19 05:55 32.977441 -117.586610 306 9859ft 288kts
22-Aug-19 05:56 33.026717 -117.661338 306 9863ft 287kts
22-Aug-19 05:57 33.082622 -117.742214 317 9870ft 322kts
22-Aug-19 05:58 33.148865 -117.811509 317 9862ft 322kts
22-Aug-19 05:59 33.221427 -117.870126 345 9880ft 326kts
22-Aug-19 06:00 33.307807 -117.891321 348 8712ft 308kts
22-Aug-19 06:01 33.386586 -117.908338 348 6963ft 278kts
22-Aug-19 06:02 33.456589 -117.931472 342 6858ft 276kts
22-Aug-19 06:03 33.527877 -117.957195 342 6860ft 275kts
22-Aug-19 06:04 33.598466 -117.981674 358 5578ft 271kts
22-Aug-19 06:05 33.664391 -117.953038 21 3915ft 266kts
22-Aug-19 06:06 33.727083 -117.922525 21 2865ft 257kts
22-Aug-19 06:07 33.787406 -117.893238 21 2859ft 261kts
22-Aug-19 06:08 33.848481 -117.863833 21 2849ft 215kts
22-Aug-19 06:09 33.899226 -117.831422 75 2861ft 209kts
22-Aug-19 06:10 33.874315 -117.770853 145 2847ft 212kts
22-Aug-19 06:11 33.822732 -117.774727 207 3124ft 199kts
22-Aug-19 06:12 33.763387 -117.813015 207 3857ft 253kts
22-Aug-19 06:13 33.723735 -117.870219 288 3887ft 259kts
22-Aug-19 06:14 33.787067 -117.900527 345 6034ft 257kts
22-Aug-19 06:15 33.795413 -117.969085 232 6871ft 253kts
22-Aug-19 06:16 33.753589 -118.034899 231 6863ft 251kts
22-Aug-19 06:17 33.728451 -118.111830 251 6863ft 253kts
22-Aug-19 06:18 33.695276 -118.178921 186 6895ft 251kts
22-Aug-19 06:19 33.672520 -118.119851 52 6894ft 261kts
22-Aug-19 06:20 33.724730 -118.068155 12 6877ft 263kts
22-Aug-19 06:21 33.792693 -118.049968 25 6777ft 262kts
22-Aug-19 06:22 33.848494 -118.015498 26 5041ft 224kts
22-Aug-19 06:23 33.904663 -118.012700 341 4861ft 216kts
22-Aug-19 06:24 33.952264 -118.031371 336 4211ft 186kts
22-Aug-19 06:25 33.972947 -118.080510 291 3856ft 179kts
22-Aug-19 06:26 33.957952 -118.132153 247 3324ft 211kts
22-Aug-19 06:27 33.950201 -118.189663 253 2120ft 197kts
22-Aug-19 06:28 33.942282 -118.249779 264 1463ft 169kts
22-Aug-19 06:29 33.941934 -118.305645 273 714ft 168kts
22-Aug-19 06:30 33.939225 -118.366982 261 430ft 170kts
22-Aug-19 06:32 33.935304 -118.400203 252 133ft 35kts
22-Aug-19 06:33 33.933440 -118.400822 222 133ft 4kts
22-Aug-19 06:34 33.934279 -118.400639 87 133ft 10kts
22-Aug-19 06:35 33.934856 -118.395538 83 133ft 26kts
22-Aug-19 06:36 33.935649 -118.387499 81 133ft 24kts
22-Aug-19 06:37 33.936509 -118.391786 265 133ft 173kts
22-Aug-19 06:38 33.916629 -118.459452 232 2000ft 228kts
22-Aug-19 06:39 33.875108 -118.514646 192 4043ft 231kts
22-Aug-19 06:40 33.812338 -118.525374 153 4886ft 232kts
22-Aug-19 06:41 33.755188 -118.489228 151 4856ft 232kts
22-Aug-19 06:42 33.703377 -118.441979 122 4888ft 259kts
22-Aug-19 06:43 33.669942 -118.374462 121 4877ft 248kts
22-Aug-19 06:44 33.636218 -118.302297 98 4887ft 250kts
22-Aug-19 06:45 33.664570 -118.226718 61 4874ft 252kts
22-Aug-19 06:46 33.697122 -118.157158 61 4867ft 250kts
22-Aug-19 06:47 33.726541 -118.094651 61 4866ft 229kts
22-Aug-19 06:48 33.755950 -118.032181 61 4766ft 234kts
22-Aug-19 06:49 33.785013 -117.970316 61 3859ft 217kts
22-Aug-19 06:50 33.820813 -117.910471 31 3876ft 225kts
22-Aug-19 06:51 33.871213 -117.871652 49 2853ft 211kts
22-Aug-19 06:52 33.859610 -117.803737 111 2858ft 221kts
22-Aug-19 06:52 33.818743 -117.776234 171 2865ft 224kts
22-Aug-19 06:54 33.752324 -117.754987 200 2897ft 219kts
22-Aug-19 06:55 33.755557 -117.807775 306 2912ft 175kts
22-Aug-19 06:55 33.794619 -117.809489 0 2864ft 182kts
22-Aug-19 06:57 33.829726 -117.858846 314 2843ft 178kts
22-Aug-19 06:57 33.866740 -117.853562 22 2857ft 176kts
22-Aug-19 06:58 33.866152 -117.801300 111 2858ft 179kts
22-Aug-19 07:00 33.816817 -117.776448 171 2862ft 181kts
22-Aug-19 07:00 33.784017 -117.807150 217 1680ft 217kts
22-Aug-19 07:01 33.737114 -117.830102 209 835ft 163kts
22-Aug-19 07:02 33.701638 -117.852452 202 542ft 148kts
22-Aug-19 07:03 33.673229 -117.870440 207 64ft 36kts
22-Aug-19 07:04 33.671912 -117.872897 291 64ft 9kts

Navigation Log

Ident Type
Flight plan parsing failed, navigation log unavailable